Time;durP1;ratioP1;P1;durP2;ratioP2;P2;SDS_P1;SDS_P2;PMS_P1;PMS_P2;Temp;Humidity;BMP_temperature;BMP_pressure;BME280_temperature;BME280_humidity;BME280_pressure;Samples;Min_cycle;Max_cycle;Signal;HPM_P1;HPM_P2
2023/09/02 00:01:41;;;;;;;0.30;0.30;;;;;;;17.17;67.34;99048.31;6292853;22;20034;-85
2023/09/02 00:04:10;;;;;;;0.30;0.30;;;;;;;17.08;67.16;99033.66;6266090;22;20023;-86
2023/09/02 00:06:37;;;;;;;0.40;0.40;;;;;;;17.16;67.36;99048.59;6263886;22;20026;-85
2023/09/02 00:09:05;;;;;;;0.40;0.40;;;;;;;17.16;67.13;99040.41;6294566;22;20023;-84
2023/09/02 00:11:32;;;;;;;0.30;0.30;;;;;;;17.15;67.24;99047.78;6265534;22;20026;-85
2023/09/02 00:13:59;;;;;;;0.40;0.40;;;;;;;17.15;67.24;99047.78;6262650;22;20030;-85
2023/09/02 00:16:26;;;;;;;0.30;0.30;;;;;;;17.11;67.38;99038.53;6263106;22;20032;-85
2023/09/02 00:18:53;;;;;;;0.30;0.30;;;;;;;17.09;67.55;99044.28;6249285;22;20084;-85
2023/09/02 00:21:21;;;;;;;0.30;0.30;;;;;;;17.09;67.54;99035.28;6274002;22;20038;-85
2023/09/02 00:23:50;;;;;;;0.30;0.30;;;;;;;17.09;67.78;99043.44;6275186;22;20024;-86
2023/09/02 00:26:17;;;;;;;0.30;0.30;;;;;;;17.09;67.65;99038.00;6274569;22;20034;-85
2023/09/02 00:28:47;;;;;;;0.30;0.30;;;;;;;17.09;67.72;99043.44;6250036;22;20570;-85
2023/09/02 00:31:19;;;;;;;0.40;0.40;;;;;;;17.14;67.70;99037.94;6279886;22;20023;-85
2023/09/02 00:33:47;;;;;;;0.30;0.30;;;;;;;17.20;67.45;99050.47;6279739;22;20102;-86
2023/09/02 00:36:14;;;;;;;0.30;0.30;;;;;;;17.21;67.37;99038.44;6280500;22;20031;-86
2023/09/02 00:38:41;;;;;;;0.30;0.30;;;;;;;17.22;67.66;99033.81;6255183;22;20046;-85
2023/09/02 00:41:13;;;;;;;0.30;0.30;;;;;;;17.21;67.54;99019.34;6216073;22;20031;-87
2023/09/02 00:43:45;;;;;;;;;;;;;;;17.24;67.33;99035.16;6286760;22;20126;-85
2023/09/02 00:46:12;;;;;;;0.30;0.30;;;;;;;17.24;67.39;99028.88;6251653;22;19941;-86
2023/09/02 00:48:40;;;;;;;0.30;0.30;;;;;;;17.25;67.16;99019.59;6251413;22;20024;-85
2023/09/02 00:51:09;;;;;;;0.30;0.30;;;;;;;17.31;67.26;99024.69;6280094;22;20077;-86
2023/09/02 00:53:38;;;;;;;0.30;0.30;;;;;;;17.24;67.17;99012.50;6226699;22;20031;-85
2023/09/02 00:56:06;;;;;;;0.30;0.30;;;;;;;17.36;67.21;99026.56;6252803;22;20024;-83
2023/09/02 00:58:33;;;;;;;0.30;0.30;;;;;;;17.40;67.30;99026.81;6279532;22;20030;-84
2023/09/02 01:01:03;;;;;;;0.30;0.30;;;;;;;17.43;67.04;99023.50;6278831;22;20048;-84
2023/09/02 01:03:32;;;;;;;0.30;0.30;;;;;;;17.44;67.13;99012.28;6278075;22;20048;-85
2023/09/02 01:06:00;;;;;;;0.40;0.40;;;;;;;17.45;66.74;99013.13;6282570;22;20336;-85
2023/09/02 01:08:29;;;;;;;0.30;0.30;;;;;;;17.48;66.97;99007.09;6283788;22;20027;-86
2023/09/02 01:11:02;;;;;;;0.30;0.30;;;;;;;17.44;67.25;99009.56;6282854;22;20050;-85
2023/09/02 01:13:30;;;;;;;0.40;0.40;;;;;;;17.45;67.05;99018.59;6256121;22;20027;-84
2023/09/02 01:15:58;;;;;;;0.30;0.30;;;;;;;17.44;66.96;99020.47;6284267;22;20111;-85
2023/09/02 01:18:29;;;;;;;0.30;0.30;;;;;;;17.42;66.92;99035.50;6277716;22;20081;-85
2023/09/02 01:21:05;;;;;;;0.30;0.30;;;;;;;17.43;66.97;99037.94;6249746;22;20031;-86
2023/09/02 01:24:09;;;;;;;0.30;0.30;;;;;;;17.45;67.26;99029.50;6276716;22;20035;-85
2023/09/02 01:27:02;;;;;;;0.30;0.30;;;;;;;17.49;66.96;99030.53;6250706;22;20023;-88
2023/09/02 01:29:46;;;;;;;0.30;0.30;;;;;;;17.48;67.23;99035.16;6277570;22;20023;-85
2023/09/02 01:32:13;;;;;;;0.30;0.30;;;;;;;17.48;66.89;99035.16;6276378;22;20447;-85
2023/09/02 01:34:41;;;;;;;0.30;0.30;;;;;;;17.51;67.09;99039.25;6225550;22;20041;-85
2023/09/02 01:37:09;;;;;;;0.30;0.30;;;;;;;17.50;66.97;99037.63;6276481;22;20103;-85
2023/09/02 01:39:38;;;;;;;0.30;0.30;;;;;;;17.50;67.31;99043.06;6275943;22;20019;-84
2023/09/02 01:42:08;;;;;;;0.30;0.30;;;;;;;17.51;67.32;99040.03;6248575;22;20102;-85
2023/09/02 01:44:36;;;;;;;0.30;0.30;;;;;;;17.44;67.71;99039.56;6247580;22;20030;-85
2023/09/02 01:47:04;;;;;;;0.30;0.30;;;;;;;17.41;67.99;99044.81;6248578;22;20019;-85
2023/09/02 01:49:32;;;;;;;0.30;0.30;;;;;;;17.30;68.79;99044.91;6223850;22;20024;-85
2023/09/02 01:52:05;;;;;;;0.30;0.30;;;;;;;17.21;69.19;99046.63;6224892;22;20101;-85
2023/09/02 01:54:32;;;;;;;0.30;0.30;;;;;;;17.14;69.78;99059.75;6277198;22;20021;-85
2023/09/02 01:57:02;;;;;;;0.30;0.30;;;;;;;17.14;69.97;99051.59;6226166;22;20023;-86
2023/09/02 01:59:29;;;;;;;0.30;0.30;;;;;;;17.08;70.33;99053.56;6258034;22;20019;-86
2023/09/02 02:02:01;;;;;;;0.30;0.30;;;;;;;17.05;70.58;99045.16;6257875;22;20387;-86
2023/09/02 02:04:38;;;;;;;0.40;0.40;;;;;;;17.08;70.49;99047.28;6229092;22;20024;-88
2023/09/02 02:07:10;;;;;;;0.40;0.40;;;;;;;17.01;70.83;99041.34;6180698;22;20732;-85
2023/09/02 02:09:42;;;;;;;0.30;0.30;;;;;;;16.97;71.30;99053.94;6249712;22;20115;-85
2023/09/02 02:12:10;;;;;;;0.40;0.40;;;;;;;16.87;71.51;99036.56;6275338;22;20142;-84
2023/09/02 02:14:37;;;;;;;0.30;0.30;;;;;;;16.84;71.66;99041.78;6248092;22;20024;-83
2023/09/02 02:17:09;;;;;;;0.32;0.32;;;;;;;16.85;71.85;99046.13;6247794;22;20032;-83
2023/09/02 02:19:38;;;;;;;0.30;0.30;;;;;;;16.82;71.80;99042.06;6223873;22;20573;-85
2023/09/02 02:22:05;;;;;;;0.30;0.30;;;;;;;16.79;72.18;99044.53;6248595;22;20028;-85
2023/09/02 02:24:32;;;;;;;0.30;0.30;;;;;;;16.76;72.51;99037.72;6275449;22;20107;-85
2023/09/02 02:27:00;;;;;;;0.40;0.40;;;;;;;16.71;72.68;99037.75;6248515;22;20362;-84
2023/09/02 02:29:30;;;;;;;0.30;0.30;;;;;;;16.68;72.90;99033.69;6248256;22;20030;-83
2023/09/02 02:32:00;;;;;;;0.30;0.30;;;;;;;16.65;73.28;99034.25;6222428;22;20067;-84
2023/09/02 02:34:32;;;;;;;0.30;0.30;;;;;;;16.65;73.34;99036.97;6274655;22;20081;-83
2023/09/02 02:37:00;;;;;;;0.30;0.30;;;;;;;16.64;73.44;99032.63;6274532;22;20086;-84
2023/09/02 02:39:28;;;;;;;0.30;0.30;;;;;;;16.65;73.20;99030.72;6274025;22;20023;-84
2023/09/02 02:41:55;;;;;;;0.30;0.30;;;;;;;16.64;73.15;99029.91;6248095;22;20019;-84
2023/09/02 02:44:22;;;;;;;0.40;0.40;;;;;;;16.66;72.81;99035.88;6222562;22;20026;-85
2023/09/02 02:46:49;;;;;;;0.40;0.40;;;;;;;16.68;72.71;99035.56;6248338;22;20401;-84
2023/09/02 02:49:17;;;;;;;0.30;0.30;;;;;;;16.67;72.53;99042.13;6275867;22;20046;-84
2023/09/02 02:51:44;;;;;;;0.30;0.30;;;;;;;16.68;72.68;99041.03;6275519;22;20023;-84
2023/09/02 02:54:12;;;;;;;0.30;0.30;;;;;;;16.68;72.62;99044.59;6248646;22;20019;-83
2023/09/02 02:56:39;;;;;;;0.30;0.30;;;;;;;16.63;72.69;99016.53;6247843;22;20077;-83
2023/09/02 02:59:06;;;;;;;0.40;0.40;;;;;;;16.66;72.65;99027.72;6247598;22;20042;-83
2023/09/02 03:01:34;;;;;;;0.30;0.30;;;;;;;16.76;72.60;99026.81;6222062;22;20026;-83
2023/09/02 03:04:01;;;;;;;0.30;0.30;;;;;;;16.80;72.53;99030.63;6274240;22;20405;-82
2023/09/02 03:06:29;;;;;;;0.30;0.30;;;;;;;16.77;72.35;99033.88;6274200;22;20045;-83
2023/09/02 03:09:07;;;;;;;0.30;0.30;;;;;;;16.81;72.54;99031.41;6246992;22;20022;-84
2023/09/02 03:11:36;;;;;;;0.30;0.30;;;;;;;16.84;72.46;99036.31;6274611;22;20347;-85
2023/09/02 03:14:04;;;;;;;0.30;0.30;;;;;;;16.83;72.46;99043.66;6274421;22;20019;-85
2023/09/02 03:16:33;;;;;;;0.40;0.40;;;;;;;16.78;72.49;99035.53;6246583;22;20030;-84
2023/09/02 03:19:01;;;;;;;0.32;0.32;;;;;;;16.79;72.68;99036.38;6247594;22;20026;-83
2023/09/02 03:21:30;;;;;;;0.30;0.30;;;;;;;16.81;72.60;99040.44;6245698;22;20367;-84
2023/09/02 03:23:57;;;;;;;0.30;0.30;;;;;;;16.83;72.42;99034.69;6247192;22;20050;-83
2023/09/02 03:26:27;;;;;;;0.30;0.30;;;;;;;16.81;72.53;99039.59;6246879;22;20406;-83
2023/09/02 03:28:55;;;;;;;0.30;0.30;;;;;;;16.81;73.08;99036.88;6247124;22;20427;-83
2023/09/02 03:31:29;;;;;;;0.30;0.30;;;;;;;16.88;72.76;99029.19;6223652;22;20073;-88
2023/09/02 03:33:57;;;;;;;0.40;0.40;;;;;;;16.86;72.70;99029.50;6248347;22;20098;-84
2023/09/02 03:36:26;;;;;;;0.30;0.30;;;;;;;16.84;72.74;99028.97;6247520;22;20074;-85
2023/09/02 03:38:53;;;;;;;0.40;0.40;;;;;;;16.90;72.58;99030.53;6273706;22;20023;-84
2023/09/02 03:41:23;;;;;;;0.38;0.38;;;;;;;16.92;72.52;99029.44;6221766;22;20023;-84
2023/09/02 03:43:50;;;;;;;0.30;0.30;;;;;;;16.91;72.30;99028.63;6274369;22;20367;-84
2023/09/02 03:46:25;;;;;;;0.40;0.40;;;;;;;16.83;72.57;99032.75;6247036;22;20024;-84
2023/09/02 03:48:55;;;;;;;0.30;0.30;;;;;;;16.83;72.77;99032.75;6223368;22;20332;-84
2023/09/02 03:51:24;;;;;;;0.30;0.30;;;;;;;16.88;72.85;99035.44;6247136;22;20030;-85
2023/09/02 03:53:56;;;;;;;0.30;0.30;;;;;;;16.97;73.06;99032.13;6246963;22;20027;-86
2023/09/02 03:56:25;;;;;;;0.30;0.30;;;;;;;17.01;72.96;99041.34;6246711;22;20031;-84
2023/09/02 03:58:53;;;;;;;0.30;0.30;;;;;;;17.02;73.19;99045.72;6222298;22;20031;-84
2023/09/02 04:01:23;;;;;;;0.30;0.30;;;;;;;17.05;73.30;99053.31;6246613;22;20074;-84
2023/09/02 04:03:50;;;;;;;0.30;0.30;;;;;;;17.06;73.16;99057.66;6246965;22;20024;-85
2023/09/02 04:06:18;;;;;;;0.40;0.40;;;;;;;17.09;73.15;99062.53;6247839;22;20482;-84
2023/09/02 04:08:54;;;;;;;0.30;0.30;;;;;;;17.13;73.36;99060.88;6249693;22;20027;-85
2023/09/02 04:11:23;;;;;;;0.40;0.40;;;;;;;17.18;73.29;99060.03;6278701;22;20481;-85
2023/09/02 04:13:55;;;;;;;0.40;0.40;;;;;;;17.20;72.60;99060.56;6260837;22;20028;-86
2023/09/02 04:16:25;;;;;;;0.30;0.30;;;;;;;17.17;72.26;99056.50;6297480;22;20023;-86
2023/09/02 04:18:53;;;;;;;0.30;0.30;;;;;;;17.19;72.46;99056.19;6243762;22;20350;-87
2023/09/02 04:21:20;;;;;;;0.32;0.32;;;;;;;17.21;72.34;99059.44;6247590;22;20051;-89
2023/09/02 04:23:49;;;;;;;0.30;0.30;;;;;;;17.25;72.36;99064.03;6248374;22;20027;-85
2023/09/02 04:26:19;;;;;;;0.35;0.35;;;;;;;17.20;72.22;99047.72;6249546;22;20027;-91
2023/09/02 04:28:47;;;;;;;0.30;0.30;;;;;;;17.34;72.50;99064.22;6225974;22;20023;-88
2023/09/02 04:31:28;;;;;;;0.30;0.30;;;;;;;17.36;72.47;99062.03;6249026;22;20099;-89
2023/09/02 04:33:58;;;;;;;0.30;0.30;;;;;;;17.38;72.51;99065.28;6228087;22;20030;-85
2023/09/02 04:36:29;;;;;;;0.30;0.30;;;;;;;17.44;72.60;99071.50;6231115;22;20051;-83
2023/09/02 04:39:04;;;;;;;0.30;0.30;;;;;;;17.47;72.42;99068.19;6252500;22;20026;-89
2023/09/02 04:41:33;;;;;;;0.40;0.40;;;;;;;17.51;72.59;99071.97;6231478;22;20030;-85
2023/09/02 04:44:01;;;;;;;0.30;0.30;;;;;;;17.57;72.59;99068.09;6202054;22;20311;-86
2023/09/02 04:46:31;;;;;;;0.40;0.40;;;;;;;17.64;72.09;99065.03;6251519;22;20024;-87
2023/09/02 04:48:58;;;;;;;0.40;0.40;;;;;;;17.68;72.04;99066.06;6252413;22;20024;-87
2023/09/02 04:51:28;;;;;;;0.30;0.30;;;;;;;17.73;71.94;99064.09;6247088;22;20019;-88
2023/09/02 04:53:59;;;;;;;0.30;0.30;;;;;;;17.80;71.49;99071.16;6240234;22;20542;-92
2023/09/02 04:56:26;;;;;;;0.40;0.40;;;;;;;17.88;71.74;99073.25;6284428;22;19999;-93
2023/09/02 04:59:08;;;;;;;0.40;0.40;;;;;;;17.92;71.85;99069.63;6229272;22;20027;-87
2023/09/02 05:01:42;;;;;;;0.40;0.40;;;;;;;17.91;71.53;99075.41;6225045;22;20103;-86
2023/09/02 05:04:10;;;;;;;0.40;0.40;;;;;;;17.85;71.92;99074.66;6248869;22;20427;-86
2023/09/02 05:06:41;;;;;;;0.30;0.30;;;;;;;17.91;71.55;99078.94;6225336;22;20021;-87
2023/09/02 05:09:09;;;;;;;0.30;0.30;;;;;;;17.90;71.34;99076.47;6249077;22;20027;-85
2023/09/02 05:11:37;;;;;;;0.40;0.40;;;;;;;17.96;71.48;99076.16;6225924;22;20447;-89
2023/09/02 05:14:05;;;;;;;0.40;0.40;;;;;;;18.01;71.45;99080.75;6275839;22;20024;-88
2023/09/02 05:16:36;;;;;;;0.40;0.40;;;;;;;18.06;71.13;99086.13;6222414;22;20019;-89
2023/09/02 05:19:29;;;;;;;0.40;0.40;;;;;;;18.12;70.56;99086.88;6276243;22;20019;-89
2023/09/02 05:22:22;;;;;;;0.40;0.40;;;;;;;18.14;70.53;99080.03;6199213;22;20024;-87
2023/09/02 05:24:50;;;;;;;0.30;0.30;;;;;;;18.08;70.57;99070.28;6224310;22;20042;-90
2023/09/02 05:27:19;;;;;;;0.40;0.40;;;;;;;18.22;70.14;99091.41;6250929;22;20450;-88
2023/09/02 05:29:46;;;;;;;0.40;0.40;;;;;;;18.17;69.42;99097.75;6248659;22;20024;-88
2023/09/02 05:32:14;;;;;;;0.30;0.30;;;;;;;18.15;68.93;99092.59;6250695;22;20070;-86
2023/09/02 05:34:41;;;;;;;0.40;0.40;;;;;;;18.22;68.62;99094.13;6275651;22;20027;-86
2023/09/02 05:37:10;;;;;;;0.30;0.30;;;;;;;18.26;68.47;99097.91;6249325;22;20066;-85
2023/09/02 05:39:39;;;;;;;0.40;0.40;;;;;;;18.27;68.38;99094.06;6275332;22;20019;-85
2023/09/02 05:42:07;;;;;;;0.30;0.30;;;;;;;18.28;68.67;99095.69;6248208;22;20123;-86
2023/09/02 05:44:35;;;;;;;0.40;0.40;;;;;;;18.31;68.30;99103.31;6248622;22;20028;-84
2023/09/02 05:47:02;;;;;;;0.30;0.30;;;;;;;18.07;68.85;99081.47;6248369;22;20023;-85
2023/09/02 05:49:35;;;;;;;0.35;0.35;;;;;;;17.97;69.60;99087.88;6221380;22;20356;-85
2023/09/02 05:52:06;;;;;;;0.30;0.30;;;;;;;18.01;69.56;99088.13;6275389;22;20020;-83
2023/09/02 05:54:34;;;;;;;0.30;0.30;;;;;;;17.96;68.67;99089.78;6275005;22;20023;-85
2023/09/02 05:57:01;;;;;;;0.40;0.40;;;;;;;17.89;68.77;99099.44;6248926;22;20024;-86
2023/09/02 05:59:29;;;;;;;0.38;0.38;;;;;;;17.85;69.02;99104.69;6275014;22;20023;-85
2023/09/02 06:01:58;;;;;;;0.40;0.40;;;;;;;17.87;68.86;99107.91;6274603;22;20398;-85
2023/09/02 06:04:25;;;;;;;0.30;0.30;;;;;;;17.85;68.87;99121.06;6248381;22;20034;-85
2023/09/02 06:06:56;;;;;;;0.40;0.40;;;;;;;17.79;68.95;99122.16;6274845;22;20514;-85
2023/09/02 06:09:26;;;;;;;0.40;0.40;;;;;;;17.79;69.08;99122.16;6248234;22;20028;-86
2023/09/02 06:11:53;;;;;;;0.40;0.40;;;;;;;17.70;68.95;99127.47;6249444;22;20103;-87
2023/09/02 06:14:20;;;;;;;0.35;0.35;;;;;;;17.73;69.38;99128.78;6248291;22;20023;-86
2023/09/02 06:16:49;;;;;;;0.40;0.40;;;;;;;17.71;69.91;99128.25;6246576;22;20432;-86
2023/09/02 06:19:18;;;;;;;0.40;0.40;;;;;;;17.59;70.37;99117.72;6275599;22;20026;-85
2023/09/02 06:21:45;;;;;;;0.35;0.35;;;;;;;17.58;70.79;99132.50;6275146;22;20106;-87
2023/09/02 06:24:20;;;;;;;0.40;0.40;;;;;;;17.54;71.46;99132.22;6274479;22;20103;-86
2023/09/02 06:26:47;;;;;;;0.40;0.40;;;;;;;17.43;71.85;99130.72;6248055;22;20019;-87
2023/09/02 06:29:14;;;;;;;0.30;0.30;;;;;;;17.27;72.66;99132.75;6274788;22;20047;-86
2023/09/02 06:31:42;;;;;;;0.35;0.35;;;;;;;17.10;73.42;99119.53;6248023;22;20024;-86
2023/09/02 06:34:38;;;;;;;0.30;0.30;;;;;;;17.08;74.42;99140.00;6248864;22;20027;-88
2023/09/02 06:37:19;;;;;;;0.30;0.30;;;;;;;16.86;75.06;99124.06;6227005;22;20019;-85
2023/09/02 06:39:52;;;;;;;0.40;0.40;;;;;;;16.89;76.80;99137.94;6276193;22;20020;-87
2023/09/02 06:42:20;;;;;;;0.30;0.30;;;;;;;16.89;77.51;99154.31;6250701;22;20110;-87
2023/09/02 06:44:52;;;;;;;0.38;0.38;;;;;;;16.86;78.09;99141.25;6248885;22;20059;-85
2023/09/02 06:47:19;;;;;;;0.30;0.30;;;;;;;16.83;78.97;99152.69;6249238;22;20024;-86
2023/09/02 06:49:46;;;;;;;0.40;0.40;;;;;;;16.61;79.88;99144.06;6223609;22;20019;-87
2023/09/02 06:52:14;;;;;;;0.30;0.30;;;;;;;16.55;80.80;99153.38;6275633;22;20019;-85
2023/09/02 06:54:41;;;;;;;0.40;0.40;;;;;;;16.42;82.56;99146.63;6247823;22;20028;-86
2023/09/02 06:57:08;;;;;;;0.40;0.40;;;;;;;16.31;84.13;99148.59;6274653;22;20020;-86
2023/09/02 06:59:35;;;;;;;0.40;0.40;;;;;;;16.27;84.66;99147.50;6274231;22;20351;-86
2023/09/02 07:02:02;;;;;;;0.40;0.40;;;;;;;16.23;83.78;99141.00;6248092;22;20046;-87
2023/09/02 07:04:30;;;;;;;0.40;0.40;;;;;;;16.20;83.92;99145.09;6274449;22;20030;-86
2023/09/02 07:06:57;;;;;;;0.40;0.40;;;;;;;16.23;84.20;99141.81;6222664;22;20534;-87
2023/09/02 07:09:24;;;;;;;0.40;0.40;;;;;;;16.27;83.98;99149.41;6248024;22;20016;-85
2023/09/02 07:11:55;;;;;;;0.40;0.40;;;;;;;16.31;84.40;99154.03;6274606;22;20024;-86
2023/09/02 07:14:24;;;;;;;0.40;0.40;;;;;;;16.35;84.61;99159.72;6248401;22;20051;-85
2023/09/02 07:16:55;;;;;;;0.40;0.40;;;;;;;16.36;85.25;99155.91;6274709;22;20032;-86
2023/09/02 07:19:25;;;;;;;0.40;0.40;;;;;;;16.39;85.73;99150.72;6274235;22;20108;-86
2023/09/02 07:21:56;;;;;;;0.40;0.40;;;;;;;16.35;85.63;99148.81;6222307;22;20477;-85
2023/09/02 07:24:24;;;;;;;0.30;0.30;;;;;;;16.40;85.26;99144.16;6273948;22;20024;-85
2023/09/02 07:26:52;;;;;;;0.40;0.40;;;;;;;16.52;85.17;99148.50;6274540;22;20340;-85
2023/09/02 07:29:19;;;;;;;0.38;0.38;;;;;;;16.51;84.78;99152.28;6197297;22;20024;-86
2023/09/02 07:31:48;;;;;;;0.40;0.40;;;;;;;16.53;85.58;99161.00;6223364;22;20128;-87
2023/09/02 07:34:16;;;;;;;0.40;0.40;;;;;;;16.46;85.62;99151.25;6252210;22;20023;-87
2023/09/02 07:36:43;;;;;;;0.40;0.40;;;;;;;16.59;85.91;99163.44;6281426;22;20024;-86
2023/09/02 07:39:12;;;;;;;0.40;0.40;;;;;;;16.56;85.68;99155.00;6251219;22;20027;-86
2023/09/02 07:41:40;;;;;;;0.40;0.40;;;;;;;16.61;85.77;99174.88;6274671;22;20038;-85
2023/09/02 07:44:08;;;;;;;0.40;0.40;;;;;;;16.60;85.64;99162.31;6247929;22;20062;-86
2023/09/02 07:46:35;;;;;;;0.40;0.40;;;;;;;16.73;85.62;99171.78;6273729;22;20383;-86
2023/09/02 07:49:03;;;;;;;0.30;0.30;;;;;;;16.80;86.32;99176.97;6247245;22;20050;-85
2023/09/02 07:51:30;;;;;;;0.30;0.30;;;;;;;16.86;86.84;99179.41;6274057;22;20107;-87
2023/09/02 07:53:58;;;;;;;0.40;0.40;;;;;;;16.95;86.62;99184.25;6248272;22;20024;-86
2023/09/02 07:56:30;;;;;;;0.40;0.40;;;;;;;16.97;86.58;99188.31;6275876;22;20046;-86
2023/09/02 07:58:57;;;;;;;0.40;0.40;;;;;;;17.01;85.97;99188.56;6282426;22;20019;-86
2023/09/02 08:01:38;;;;;;;0.30;0.30;;;;;;;17.04;85.59;99196.19;6289364;22;20024;-86
2023/09/02 08:04:08;;;;;;;0.30;0.30;;;;;;;17.07;85.36;99191.00;6250846;22;20027;-87
2023/09/02 08:06:37;;;;;;;0.40;0.40;;;;;;;17.15;85.38;99192.31;6223913;22;20020;-87
2023/09/02 08:09:05;;;;;;;0.30;0.30;;;;;;;17.24;85.73;99198.78;6275558;22;20020;-86
2023/09/02 08:11:32;;;;;;;0.40;0.40;;;;;;;17.24;86.75;99190.59;6197527;22;20035;-85
2023/09/02 08:14:03;;;;;;;0.40;0.40;;;;;;;17.38;87.27;99201.69;6224180;22;20028;-85
2023/09/02 08:16:30;;;;;;;0.40;0.40;;;;;;;17.42;87.42;99205.47;6247257;22;20024;-84
2023/09/02 08:18:57;;;;;;;0.40;0.40;;;;;;;17.39;86.86;99199.75;6277425;22;20051;-87
2023/09/02 08:21:25;;;;;;;0.40;0.40;;;;;;;17.47;86.05;99205.44;6248412;22;20047;-86
2023/09/02 08:23:52;;;;;;;0.40;0.40;;;;;;;17.54;86.23;99202.38;6198203;22;20035;-86
2023/09/02 08:26:22;;;;;;;0.30;0.30;;;;;;;17.50;86.46;99196.69;6247823;22;20020;-86
2023/09/02 08:28:52;;;;;;;0.40;0.40;;;;;;;17.38;87.20;99192.69;6275168;22;20026;-86
2023/09/02 08:31:21;;;;;;;0.28;0.28;;;;;;;17.46;86.78;99211.16;6274927;22;20020;-86
2023/09/02 08:33:51;;;;;;;0.35;0.35;;;;;;;17.43;86.19;99212.56;6243070;22;20023;-87
2023/09/02 08:36:18;;;;;;;0.32;0.32;;;;;;;17.54;87.42;99219.53;6285942;22;20505;-86
2023/09/02 08:38:46;;;;;;;0.40;0.40;;;;;;;17.59;87.18;99221.41;6273787;22;20027;-87
2023/09/02 08:41:24;;;;;;;0.40;0.40;;;;;;;17.55;87.58;99201.28;6246984;22;20073;-87
2023/09/02 08:43:53;;;;;;;0.40;0.40;;;;;;;17.62;86.90;99214.56;6247039;22;20502;-85
2023/09/02 08:46:25;;;;;;;0.35;0.35;;;;;;;17.62;85.84;99218.13;6273849;22;20043;-86
2023/09/02 08:48:58;;;;;;;0.30;0.30;;;;;;;17.59;86.22;99221.41;6246950;22;20024;-86
2023/09/02 08:51:26;;;;;;;0.40;0.40;;;;;;;17.54;87.10;99224.19;6248544;22;20095;-87
2023/09/02 08:53:55;;;;;;;0.40;0.40;;;;;;;17.62;87.46;99229.03;6248814;22;20024;-85
2023/09/02 08:56:23;;;;;;;0.40;0.40;;;;;;;17.70;88.02;99230.38;6223914;22;20062;-87
2023/09/02 08:58:52;;;;;;;0.40;0.40;;;;;;;17.80;87.90;99226.75;6248461;22;20024;-86
2023/09/02 09:01:21;;;;;;;0.40;0.40;;;;;;;17.86;88.26;99233.78;6277170;22;20027;-84
2023/09/02 09:03:55;;;;;;;0.40;0.40;;;;;;;17.81;87.20;99229.19;6223941;22;20054;-86
2023/09/02 09:06:24;;;;;;;0.40;0.40;;;;;;;17.87;86.26;99241.69;6249310;22;20028;-86
2023/09/02 09:08:53;;;;;;;0.40;0.40;;;;;;;17.85;87.24;99234.88;6223441;22;20051;-86
2023/09/02 09:11:22;;;;;;;0.30;0.30;;;;;;;17.94;87.22;99250.34;6250014;22;20508;-86
2023/09/02 09:13:53;;;;;;;0.40;0.40;;;;;;;17.94;85.66;99250.34;6275791;22;20103;-86
2023/09/02 09:16:24;;;;;;;0.40;0.40;;;;;;;17.91;85.50;99247.41;6275882;22;20020;-86
2023/09/02 09:18:54;;;;;;;0.30;0.30;;;;;;;17.82;85.54;99239.00;6226082;22;20023;-86
2023/09/02 09:21:21;;;;;;;0.40;0.40;;;;;;;17.87;86.13;99252.59;6276515;22;20092;-87
2023/09/02 09:23:50;;;;;;;0.30;0.30;;;;;;;17.88;87.46;99259.72;6248976;22;20506;-85
2023/09/02 09:26:19;;;;;;;0.40;0.40;;;;;;;17.79;88.15;99250.47;6249720;22;20463;-87
2023/09/02 09:28:55;;;;;;;0.40;0.40;;;;;;;17.79;88.34;99257.84;6248912;22;20035;-87
2023/09/02 09:31:24;;;;;;;0.30;0.30;;;;;;;17.82;87.96;99258.09;6250365;22;20415;-85
2023/09/02 09:33:54;;;;;;;0.30;0.30;;;;;;;17.92;88.12;99263.47;6275975;22;20049;-86
2023/09/02 09:36:23;;;;;;;0.40;0.40;;;;;;;17.97;88.19;99265.34;6250441;22;20403;-86
2023/09/02 09:39:02;;;;;;;0.30;0.30;;;;;;;17.99;88.12;99249.50;6173653;22;20447;-85
2023/09/02 09:41:30;;;;;;;0.32;0.32;;;;;;;18.08;87.52;99268.78;6249576;22;20024;-86
2023/09/02 09:44:03;;;;;;;0.30;0.30;;;;;;;18.11;88.04;99270.97;6223075;22;20024;-86
2023/09/02 09:46:35;;;;;;;0.35;0.35;;;;;;;18.09;88.32;99278.63;6275085;22;20066;-86
2023/09/02 09:49:05;;;;;;;0.40;0.40;;;;;;;18.09;88.32;99276.72;6250458;22;20019;-86
2023/09/02 09:51:37;;;;;;;0.40;0.40;;;;;;;18.21;88.62;99275.53;6249963;22;20019;-87
2023/09/02 09:54:06;;;;;;;0.30;0.30;;;;;;;18.26;89.04;99283.69;6225060;22;20450;-86
2023/09/02 09:56:42;;;;;;;0.30;0.30;;;;;;;18.29;88.91;99285.81;6275688;22;20520;-86
2023/09/02 09:59:11;;;;;;;0.40;0.40;;;;;;;18.25;88.84;99280.09;6199509;22;20024;-85
2023/09/02 10:01:39;;;;;;;0.30;0.30;;;;;;;18.24;89.17;99275.75;6225973;22;20028;-86
2023/09/02 10:04:08;;;;;;;0.40;0.40;;;;;;;18.31;89.05;99292.63;6198794;22;20023;-86
2023/09/02 10:06:38;;;;;;;0.40;0.40;;;;;;;18.25;88.37;99282.84;6275145;22;20046;-84
2023/09/02 10:09:06;;;;;;;0.40;0.40;;;;;;;18.40;87.59;99304.53;6249504;22;20023;-86
2023/09/02 10:11:35;;;;;;;0.40;0.40;;;;;;;18.49;86.61;99302.00;6248478;22;20023;-86
2023/09/02 10:14:03;;;;;;;0.40;0.40;;;;;;;18.55;85.80;99289.91;6249111;22;20387;-86
2023/09/02 10:16:34;;;;;;;0.30;0.30;;;;;;;18.63;86.04;99316.63;6250667;22;20028;-87
2023/09/02 10:19:04;;;;;;;0.30;0.30;;;;;;;18.60;85.96;99295.31;6199593;22;20020;-86
2023/09/02 10:21:33;;;;;;;0.40;0.40;;;;;;;18.72;84.91;99314.06;6198185;22;20110;-86
2023/09/02 10:24:04;;;;;;;0.40;0.40;;;;;;;18.74;84.50;99311.03;6274592;22;20030;-86
2023/09/02 10:26:49;;;;;;;0.40;0.40;;;;;;;18.74;85.09;99321.97;6223960;22;20023;-86
2023/09/02 10:29:19;;;;;;;0.40;0.40;;;;;;;18.76;85.36;99317.03;6223024;22;20425;-86
2023/09/02 10:31:49;;;;;;;0.40;0.40;;;;;;;18.91;85.27;99314.13;6275268;22;20443;-86
2023/09/02 10:34:34;;;;;;;0.40;0.40;;;;;;;19.20;86.30;99305.03;6223735;22;20024;-87
2023/09/02 10:37:05;;;;;;;0.40;0.40;;;;;;;19.13;86.76;99279.94;6249191;22;20115;-85
2023/09/02 10:40:06;;;;;;;0.40;0.40;;;;;;;19.23;86.21;99301.69;6222748;22;20101;-87
2023/09/02 10:42:36;;;;;;;0.40;0.40;;;;;;;19.21;85.81;99298.44;6262626;22;20030;-87
2023/09/02 10:45:05;;;;;;;0.40;0.40;;;;;;;19.15;84.42;99305.09;6275459;22;20027;-85
2023/09/02 10:47:33;;;;;;;0.40;0.40;;;;;;;19.09;84.05;99296.16;6224577;22;20751;-86
2023/09/02 10:50:02;;;;;;;0.40;0.40;;;;;;;19.19;83.36;99295.16;6198320;22;20023;-85
2023/09/02 10:52:30;;;;;;;0.40;0.40;;;;;;;19.05;82.67;99290.44;6202789;22;20038;-85
2023/09/02 10:55:09;;;;;;;0.30;0.30;;;;;;;19.10;82.60;99305.97;6223669;22;20024;-86
2023/09/02 10:57:54;;;;;;;0.38;0.38;;;;;;;19.14;82.44;99326.16;6222946;22;20458;-86
2023/09/02 11:00:25;;;;;;;0.32;0.32;;;;;;;19.07;82.17;99308.50;6274934;22;20023;-86
2023/09/02 11:02:57;;;;;;;0.40;0.40;;;;;;;19.03;83.00;99327.38;6247646;22;20054;-86
2023/09/02 11:05:30;;;;;;;0.40;0.40;;;;;;;18.97;83.03;99325.84;6247731;22;20024;-85
2023/09/02 11:07:57;;;;;;;0.30;0.30;;;;;;;18.93;82.54;99313.84;6274821;22;20029;-86
2023/09/02 11:10:50;;;;;;;0.30;0.30;;;;;;;18.95;81.87;99317.91;6247851;22;20110;-85
2023/09/02 11:13:20;;;;;;;0.30;0.30;;;;;;;19.05;82.52;99338.84;6250053;22;20029;-87
2023/09/02 11:16:15;;;;;;;0.30;0.30;;;;;;;18.91;83.36;99332.47;6247718;22;20023;-85
2023/09/02 11:18:44;;;;;;;0.40;0.40;;;;;;;18.70;84.12;99320.91;6248781;22;20020;-86
2023/09/02 11:21:46;;;;;;;0.30;0.30;;;;;;;18.81;85.19;99331.50;6223661;22;20564;-87
2023/09/02 11:24:18;;;;;;;0.40;0.40;;;;;;;18.82;84.83;99330.38;6223634;22;20034;-87
2023/09/02 11:26:51;;;;;;;0.40;0.40;;;;;;;18.80;83.32;99329.84;6274144;22;20459;-87
2023/09/02 11:29:28;;;;;;;0.40;0.40;;;;;;;18.81;84.87;99323.28;6223153;22;20020;-86
2023/09/02 11:32:00;;;;;;;0.30;0.30;;;;;;;18.77;85.52;99327.69;6200386;22;20019;-86
2023/09/02 11:34:30;;;;;;;0.30;0.30;;;;;;;18.75;85.54;99340.84;6230446;22;20011;-87
2023/09/02 11:37:01;;;;;;;0.30;0.30;;;;;;;18.70;85.43;99337.31;6239670;22;20358;-86
2023/09/02 11:39:30;;;;;;;0.40;0.40;;;;;;;18.72;85.47;99346.06;6229487;22;20024;-86
2023/09/02 11:42:11;;;;;;;0.30;0.30;;;;;;;18.83;85.36;99351.13;6222327;22;20034;-86
2023/09/02 11:44:50;;;;;;;0.30;0.30;;;;;;;18.70;86.03;99337.31;6224238;22;20050;-86
2023/09/02 11:47:17;;;;;;;0.40;0.40;;;;;;;18.68;86.68;99345.78;6252359;22;20066;-87
2023/09/02 11:49:46;;;;;;;0.40;0.40;;;;;;;18.62;87.08;99352.44;6225361;22;20020;-86